createdAt,value
2018-04-06T00:01:18.925Z,6.03
2018-04-06T00:03:47.242Z,6.03
2018-04-06T00:06:15.570Z,6.07
2018-04-06T00:08:43.883Z,6.05
2018-04-06T00:11:12.217Z,6.02
2018-04-06T00:13:40.528Z,5.98
2018-04-06T00:16:08.857Z,5.96
2018-04-06T00:18:37.258Z,5.95
2018-04-06T00:21:05.569Z,5.88
2018-04-06T00:23:33.892Z,5.84
2018-04-06T00:26:02.223Z,5.88
2018-04-06T00:28:30.534Z,5.91
2018-04-06T00:30:58.865Z,5.93
2018-04-06T00:33:27.178Z,5.97
2018-04-06T00:35:55.514Z,5.94
2018-04-06T00:38:23.829Z,5.91
2018-04-06T00:40:52.166Z,5.87
2018-04-06T00:43:20.481Z,5.86
2018-04-06T00:45:48.806Z,5.89
2018-04-06T00:48:17.122Z,5.86
2018-04-06T00:50:45.454Z,5.89
2018-04-06T00:53:25.426Z,5.88
2018-04-06T00:55:53.757Z,5.82
2018-04-06T00:58:22.069Z,5.80
2018-04-06T01:00:50.397Z,5.77
2018-04-06T01:03:18.714Z,5.71
2018-04-06T01:05:47.047Z,5.70
2018-04-06T01:08:15.359Z,5.68
2018-04-06T01:10:43.691Z,5.67
2018-04-06T01:13:12.006Z,5.57
2018-04-06T01:15:40.341Z,5.43
2018-04-06T01:18:08.659Z,5.44
2018-04-06T01:20:36.986Z,5.50
2018-04-06T01:23:05.302Z,5.51
2018-04-06T01:25:33.676Z,5.53
2018-04-06T01:28:01.950Z,5.56
2018-04-06T01:30:30.282Z,5.56
2018-04-06T01:32:58.590Z,5.54
2018-04-06T01:35:26.933Z,5.55
2018-04-06T01:37:55.234Z,5.53
2018-04-06T01:40:23.566Z,5.48
2018-04-06T01:42:51.888Z,5.47
2018-04-06T01:45:20.240Z,5.47
2018-04-06T01:47:48.549Z,5.44
2018-04-06T01:50:16.879Z,5.44
2018-04-06T01:52:45.210Z,5.42
2018-04-06T01:55:13.513Z,5.40
2018-04-06T01:57:41.849Z,5.37
2018-04-06T02:00:10.162Z,5.34
2018-04-06T02:02:38.494Z,5.33
2018-04-06T02:05:06.812Z,5.34
2018-04-06T02:07:35.151Z,5.32
2018-04-06T02:10:03.459Z,5.28
2018-04-06T02:12:31.789Z,5.28
2018-04-06T02:15:00.115Z,5.31
2018-04-06T02:17:28.445Z,5.36
2018-04-06T02:19:56.782Z,5.37
2018-04-06T02:22:25.109Z,5.37
2018-04-06T02:24:53.447Z,5.37
2018-04-06T02:27:21.760Z,5.36
2018-04-06T02:29:50.065Z,5.33
2018-04-06T02:32:18.398Z,5.28
2018-04-06T02:34:46.710Z,5.25
2018-04-06T02:37:15.048Z,5.21
2018-04-06T02:39:43.350Z,5.18
2018-04-06T02:42:11.682Z,5.15
2018-04-06T02:44:39.999Z,5.12
2018-04-06T02:47:08.335Z,5.15
2018-04-06T02:49:36.646Z,5.11
2018-04-06T02:52:04.985Z,5.08
2018-04-06T02:54:33.300Z,5.07
2018-04-06T02:57:01.638Z,5.05
2018-04-06T02:59:29.950Z,5.04
2018-04-06T03:01:58.303Z,5.00
2018-04-06T03:04:26.611Z,5.00
2018-04-06T03:06:54.943Z,4.98
2018-04-06T03:09:23.249Z,4.96
2018-04-06T03:11:51.574Z,4.94
2018-04-06T03:14:19.891Z,4.91
2018-04-06T03:16:48.229Z,4.87
2018-04-06T03:19:16.546Z,4.84
2018-04-06T03:21:44.874Z,4.80
2018-04-06T03:24:13.186Z,4.81
2018-04-06T03:26:41.522Z,4.76
2018-04-06T03:29:09.837Z,4.78
2018-04-06T03:31:38.165Z,4.81
2018-04-06T03:34:06.485Z,4.81
2018-04-06T03:36:34.814Z,4.82
2018-04-06T03:39:03.127Z,4.78
2018-04-06T03:41:31.464Z,4.77
2018-04-06T03:43:59.764Z,4.76
2018-04-06T03:46:28.118Z,4.73
2018-04-06T03:48:56.429Z,4.70
2018-04-06T03:51:24.758Z,4.70
2018-04-06T03:53:53.094Z,4.65
2018-04-06T03:56:21.400Z,4.59
2018-04-06T03:58:49.738Z,4.56
2018-04-06T04:01:18.045Z,4.53
2018-04-06T04:03:46.378Z,4.56
2018-04-06T04:06:14.690Z,4.59
2018-04-06T04:08:43.342Z,4.61
2018-04-06T04:11:11.654Z,4.62
2018-04-06T04:13:39.988Z,4.61
2018-04-06T04:16:08.301Z,4.65
2018-04-06T04:18:36.639Z,4.64
2018-04-06T04:21:04.947Z,4.60
2018-04-06T04:23:33.287Z,4.61
2018-04-06T04:26:01.607Z,4.58
2018-04-06T04:28:29.934Z,4.57
2018-04-06T04:30:58.245Z,4.53
2018-04-06T04:33:26.582Z,4.53
2018-04-06T04:35:54.898Z,4.48
2018-04-06T04:38:23.242Z,4.46
2018-04-06T04:40:51.555Z,4.52
2018-04-06T04:43:19.894Z,4.54
2018-04-06T04:45:48.215Z,4.47
2018-04-06T04:48:16.559Z,4.42
2018-04-06T04:50:44.870Z,4.39
2018-04-06T04:53:13.263Z,4.39
2018-04-06T04:55:41.537Z,4.33
2018-04-06T04:58:09.874Z,4.29
2018-04-06T05:00:38.199Z,4.31
2018-04-06T05:03:06.530Z,4.40
2018-04-06T05:05:34.907Z,4.47
2018-04-06T05:08:03.237Z,4.52
2018-04-06T05:10:31.566Z,4.54
2018-04-06T05:12:59.920Z,4.60
2018-04-06T05:15:28.561Z,4.66
2018-04-06T05:17:56.905Z,4.77
2018-04-06T05:20:25.238Z,4.87
2018-04-06T05:22:53.581Z,4.91
2018-04-06T05:25:21.898Z,5.05
2018-04-06T05:27:50.255Z,5.17
2018-04-06T05:30:18.566Z,5.26
2018-04-06T05:32:46.915Z,5.33
2018-04-06T05:35:15.267Z,5.48
2018-04-06T05:37:43.611Z,5.59
2018-04-06T05:40:11.930Z,5.66
2018-04-06T05:42:40.279Z,5.74
2018-04-06T05:45:08.598Z,5.87
2018-04-06T05:47:36.947Z,6.04
2018-04-06T05:50:05.262Z,6.19
2018-04-06T05:52:33.617Z,6.32
2018-04-06T05:55:01.962Z,6.40
2018-04-06T05:57:30.286Z,6.53
2018-04-06T05:59:58.642Z,6.73
2018-04-06T06:02:26.980Z,6.81
2018-04-06T06:04:55.324Z,6.85
2018-04-06T06:07:23.638Z,6.92
2018-04-06T06:09:51.989Z,6.95
2018-04-06T06:12:20.294Z,7.11
2018-04-06T06:14:48.631Z,7.29
2018-04-06T06:17:16.938Z,7.33
2018-04-06T06:19:45.279Z,7.38
2018-04-06T06:22:13.595Z,7.49
2018-04-06T06:24:41.939Z,7.58
2018-04-06T06:27:10.250Z,7.51
2018-04-06T06:29:38.586Z,7.58
2018-04-06T06:32:06.903Z,7.52
2018-04-06T06:34:35.246Z,7.44
2018-04-06T06:37:03.558Z,7.33
2018-04-06T06:39:31.898Z,7.27
2018-04-06T06:42:00.232Z,7.28
2018-04-06T06:44:28.562Z,7.32
2018-04-06T06:46:56.874Z,7.34
2018-04-06T06:49:25.229Z,7.36
2018-04-06T06:51:53.537Z,7.40
2018-04-06T06:54:21.928Z,7.46
2018-04-06T06:56:50.193Z,7.47
2018-04-06T06:59:18.542Z,7.41
2018-04-06T07:01:46.870Z,7.51
2018-04-06T07:04:15.198Z,7.53
2018-04-06T07:06:43.522Z,7.58
2018-04-06T07:09:11.868Z,7.60
2018-04-06T07:11:40.186Z,7.58
2018-04-06T07:14:08.559Z,7.61
2018-04-06T07:16:36.846Z,7.60
2018-04-06T07:19:05.186Z,7.63
2018-04-06T07:21:33.501Z,7.65
2018-04-06T07:24:01.845Z,7.67
2018-04-06T07:26:30.154Z,7.67
2018-04-06T07:28:58.498Z,7.79
2018-04-06T07:31:26.810Z,7.85
2018-04-06T07:33:55.155Z,7.94
2018-04-06T07:36:23.481Z,8.01
2018-04-06T07:38:51.826Z,8.10
2018-04-06T07:41:20.139Z,8.14
2018-04-06T07:43:48.475Z,8.14
2018-04-06T07:46:17.518Z,8.19
2018-04-06T07:48:45.857Z,8.15
2018-04-06T07:51:14.170Z,8.26
2018-04-06T07:53:42.504Z,8.32
2018-04-06T07:56:10.835Z,8.43
2018-04-06T07:58:39.150Z,8.53
2018-04-06T08:01:07.491Z,8.60
2018-04-06T08:03:35.810Z,8.47
2018-04-06T08:06:04.146Z,8.61
2018-04-06T08:08:32.462Z,8.76
2018-04-06T08:11:00.799Z,8.87
2018-04-06T08:13:29.111Z,8.93
2018-04-06T08:15:57.449Z,8.94
2018-04-06T08:18:25.772Z,9.07
2018-04-06T08:20:54.110Z,9.17
2018-04-06T08:23:22.433Z,9.21
2018-04-06T08:25:50.777Z,9.27
2018-04-06T08:28:19.082Z,9.35
2018-04-06T08:30:47.424Z,9.50
2018-04-06T08:33:15.743Z,9.51
2018-04-06T08:35:44.078Z,9.56
2018-04-06T08:38:12.417Z,9.61
2018-04-06T08:40:40.743Z,9.66
2018-04-06T08:43:09.063Z,9.77
2018-04-06T08:45:37.399Z,9.88
2018-04-06T08:48:05.770Z,9.88
2018-04-06T08:50:34.066Z,9.83
2018-04-06T08:53:02.392Z,9.84
2018-04-06T08:55:30.731Z,9.93
2018-04-06T08:57:59.053Z,10.02
2018-04-06T09:00:27.404Z,10.09
2018-04-06T09:02:55.735Z,10.16
2018-04-06T09:05:24.079Z,10.26
2018-04-06T09:07:52.407Z,10.33
2018-04-06T09:10:20.759Z,10.42
2018-04-06T09:12:49.091Z,10.46
2018-04-06T09:15:17.437Z,10.56
2018-04-06T09:17:45.761Z,10.55
2018-04-06T09:20:14.111Z,10.60
2018-04-06T09:22:42.438Z,10.57
2018-04-06T09:25:10.786Z,10.58
2018-04-06T09:27:39.108Z,10.60
2018-04-06T09:30:07.452Z,10.74
2018-04-06T09:32:35.770Z,10.80
2018-04-06T09:35:04.122Z,10.84
2018-04-06T09:37:32.444Z,11.06
2018-04-06T09:40:00.782Z,11.17
2018-04-06T09:42:29.102Z,11.17
2018-04-06T09:44:57.507Z,11.18
2018-04-06T09:47:25.826Z,11.30
2018-04-06T09:49:54.201Z,11.44
2018-04-06T09:52:22.517Z,11.39
2018-04-06T09:54:50.838Z,11.46
2018-04-06T09:57:19.228Z,11.54
2018-04-06T09:59:47.506Z,11.52
2018-04-06T10:02:15.854Z,11.58
2018-04-06T10:04:44.174Z,11.77
2018-04-06T10:07:12.511Z,11.90
2018-04-06T10:09:40.860Z,11.90
2018-04-06T10:12:09.279Z,11.89
2018-04-06T10:14:37.615Z,11.93
2018-04-06T10:17:05.953Z,12.03
2018-04-06T10:19:34.279Z,12.20
2018-04-06T10:22:02.649Z,12.13
2018-04-06T10:24:30.946Z,12.25
2018-04-06T10:26:59.289Z,12.39
2018-04-06T10:29:27.614Z,12.31
2018-04-06T10:31:55.965Z,12.42
2018-04-06T10:34:24.282Z,12.32
2018-04-06T10:36:52.626Z,12.28
2018-04-06T10:39:20.950Z,12.18
2018-04-06T10:41:49.294Z,12.28
2018-04-06T10:44:17.615Z,12.44
2018-04-06T10:46:46.006Z,12.62
2018-04-06T10:49:14.272Z,12.85
2018-04-06T10:51:42.609Z,12.94
2018-04-06T10:54:10.930Z,12.92
2018-04-06T10:56:39.275Z,12.94
2018-04-06T10:59:07.615Z,12.99
2018-04-06T11:01:35.954Z,13.17
2018-04-06T11:04:04.273Z,13.37
2018-04-06T11:06:32.612Z,13.41
2018-04-06T11:09:00.930Z,13.49
2018-04-06T11:11:29.270Z,13.48
2018-04-06T11:13:58.238Z,13.54
2018-04-06T11:16:26.578Z,13.60
2018-04-06T11:18:54.927Z,13.57
2018-04-06T11:21:23.270Z,13.55
2018-04-06T11:23:51.594Z,13.67
2018-04-06T11:26:19.935Z,13.70
2018-04-06T11:28:48.265Z,13.68
2018-04-06T11:31:16.610Z,13.81
2018-04-06T11:33:44.947Z,13.89
2018-04-06T11:36:13.287Z,13.84
2018-04-06T11:38:41.598Z,13.49
2018-04-06T11:41:09.940Z,13.51
2018-04-06T11:43:38.263Z,13.56
2018-04-06T11:46:06.598Z,13.97
2018-04-06T11:48:34.905Z,14.20
2018-04-06T11:51:03.265Z,14.30
2018-04-06T11:53:31.582Z,14.49
2018-04-06T11:55:59.898Z,14.55
2018-04-06T11:58:28.238Z,14.59
2018-04-06T12:00:56.558Z,14.68
2018-04-06T12:03:24.898Z,14.62
2018-04-06T12:05:53.226Z,14.62
2018-04-06T12:08:21.569Z,14.60
2018-04-06T12:10:49.891Z,14.74
2018-04-06T12:13:18.222Z,14.76
2018-04-06T12:15:46.541Z,14.63
2018-04-06T12:18:14.891Z,14.52
2018-04-06T12:20:43.217Z,14.58
2018-04-06T12:23:11.562Z,14.70
2018-04-06T12:25:39.879Z,14.89
2018-04-06T12:28:08.213Z,14.91
2018-04-06T12:30:36.535Z,14.87
2018-04-06T12:33:04.870Z,14.91
2018-04-06T12:35:33.187Z,15.08
2018-04-06T12:38:01.534Z,15.08
2018-04-06T12:40:29.855Z,15.02
2018-04-06T12:42:58.198Z,14.97
2018-04-06T12:45:26.527Z,14.98
2018-04-06T12:47:54.862Z,15.01
2018-04-06T12:50:23.189Z,15.07
2018-04-06T12:52:51.555Z,15.09
2018-04-06T12:55:19.877Z,15.08
2018-04-06T12:57:48.224Z,15.14
2018-04-06T13:00:16.534Z,15.06
2018-04-06T13:02:44.885Z,15.09
2018-04-06T13:05:13.371Z,15.15
2018-04-06T13:07:41.874Z,15.05
2018-04-06T13:10:10.198Z,15.08
2018-04-06T13:12:38.535Z,15.19
2018-04-06T13:15:06.981Z,15.21
2018-04-06T13:17:35.350Z,15.23
2018-04-06T13:20:03.654Z,15.42
2018-04-06T13:22:31.991Z,15.52
2018-04-06T13:25:00.306Z,15.45
2018-04-06T13:27:28.642Z,15.48
2018-04-06T13:29:57.356Z,15.54
2018-04-06T13:32:25.698Z,15.63
2018-04-06T13:34:54.014Z,15.64
2018-04-06T13:37:22.370Z,15.64
2018-04-06T13:39:50.678Z,15.69
2018-04-06T13:42:19.009Z,15.64
2018-04-06T13:44:47.329Z,15.73
2018-04-06T13:47:15.666Z,15.73
2018-04-06T13:49:44.051Z,15.67
2018-04-06T13:52:12.399Z,15.74
2018-04-06T13:54:41.558Z,15.81
2018-04-06T13:57:09.871Z,15.84
2018-04-06T13:59:38.209Z,15.79
2018-04-06T14:02:06.526Z,15.71
2018-04-06T14:04:34.870Z,15.70
2018-04-06T14:07:03.182Z,15.76
2018-04-06T14:09:31.521Z,15.83
2018-04-06T14:11:59.835Z,15.85
2018-04-06T14:14:28.173Z,15.93
2018-04-06T14:16:56.511Z,15.96
2018-04-06T14:19:24.880Z,16.03
2018-04-06T14:21:53.207Z,15.95
2018-04-06T14:27:12.217Z,16.02
2018-04-06T14:29:40.620Z,16.22
2018-04-06T14:32:08.931Z,16.26
2018-04-06T14:34:37.283Z,16.25
2018-04-06T14:37:05.603Z,16.18
2018-04-06T14:39:33.943Z,16.18
2018-04-06T14:42:02.270Z,16.09
2018-04-06T14:44:30.615Z,16.12
2018-04-06T14:46:58.930Z,16.21
2018-04-06T14:49:27.269Z,16.28
2018-04-06T14:51:55.585Z,16.27
2018-04-06T14:56:01.234Z,16.28
2018-04-06T14:58:29.570Z,16.14
2018-04-06T15:00:57.886Z,16.11
2018-04-06T15:03:26.451Z,16.14
2018-04-06T15:08:50.701Z,16.09
2018-04-06T15:19:21.191Z,19.54
2018-04-06T15:21:49.510Z,17.52
2018-04-06T15:24:17.862Z,16.66
2018-04-06T15:26:46.203Z,16.31
2018-04-06T15:29:14.559Z,16.12
2018-04-06T15:31:42.886Z,15.97
2018-04-06T15:34:11.249Z,15.85
2018-04-06T15:36:39.585Z,15.73
2018-04-06T15:39:07.936Z,15.72
2018-04-06T15:41:36.298Z,15.64
2018-04-06T15:44:04.655Z,15.60
2018-04-06T15:46:34.176Z,15.59
2018-04-06T15:49:02.518Z,15.62
2018-04-06T15:51:30.877Z,15.68
2018-04-06T15:53:59.219Z,15.73
2018-04-06T15:56:27.554Z,15.83
2018-04-06T15:58:55.918Z,15.88
2018-04-06T16:01:25.910Z,15.80
2018-04-06T16:03:54.752Z,15.90
2018-04-06T16:06:23.078Z,16.02
2018-04-06T16:08:51.436Z,15.94
2018-04-06T16:11:19.762Z,15.97
2018-04-06T16:13:48.109Z,15.89
2018-04-06T16:16:16.759Z,15.86
2018-04-06T16:18:45.111Z,15.63
2018-04-06T16:21:13.438Z,15.49
2018-04-06T16:23:42.278Z,15.42
2018-04-06T16:26:10.669Z,15.34
2018-04-06T16:28:38.949Z,15.23
2018-04-06T16:31:07.303Z,15.12
2018-04-06T16:33:35.639Z,15.06
2018-04-06T16:36:03.988Z,14.99
2018-04-06T16:38:32.310Z,14.93
2018-04-06T16:41:00.736Z,14.93
2018-04-06T16:43:29.171Z,14.96
2018-04-06T16:45:57.730Z,14.94
2018-04-06T16:48:26.110Z,14.96
2018-04-06T16:50:54.887Z,14.90
2018-04-06T16:53:24.322Z,14.93
2018-04-06T16:55:52.772Z,14.93
2018-04-06T16:58:21.859Z,14.89
2018-04-06T17:00:50.352Z,14.88
2018-04-06T17:03:18.830Z,14.83
2018-04-06T17:05:48.005Z,14.78
2018-04-06T17:08:16.462Z,14.78
2018-04-06T17:10:44.943Z,14.73
2018-04-06T17:13:13.428Z,14.70
2018-04-06T17:15:41.863Z,14.69
2018-04-06T17:18:10.255Z,14.64
2018-04-06T17:20:38.735Z,14.62
2018-04-06T17:23:07.233Z,14.61
2018-04-06T17:25:35.672Z,14.58
2018-04-06T17:28:03.982Z,14.46
2018-04-06T17:30:32.325Z,14.43
2018-04-06T17:33:00.653Z,14.41
2018-04-06T17:35:29.001Z,14.38
2018-04-06T17:37:57.493Z,14.33
2018-04-06T17:40:26.077Z,14.28
2018-04-06T17:42:54.446Z,14.20
2018-04-06T17:45:23.837Z,14.16
2018-04-06T17:47:52.358Z,14.13
2018-04-06T17:50:20.830Z,14.08
2018-04-06T17:52:49.226Z,14.03
2018-04-06T17:55:17.569Z,14.00
2018-04-06T17:57:45.911Z,13.91
2018-04-06T18:00:14.258Z,13.85
2018-04-06T18:02:42.593Z,13.75
2018-04-06T18:05:10.952Z,13.69
2018-04-06T18:07:39.286Z,13.66
2018-04-06T18:10:07.639Z,13.57
2018-04-06T18:12:35.978Z,13.51
2018-04-06T18:15:04.338Z,13.44
2018-04-06T18:17:32.670Z,13.38
2018-04-06T18:20:01.030Z,13.35
2018-04-06T18:22:29.345Z,13.30
2018-04-06T18:24:57.706Z,13.26
2018-04-06T18:27:26.078Z,13.21
2018-04-06T18:29:54.420Z,13.17
2018-04-06T18:32:22.747Z,13.13
2018-04-06T18:34:51.127Z,13.10
2018-04-06T18:37:19.429Z,13.02
2018-04-06T18:39:47.766Z,12.97
2018-04-06T18:42:16.114Z,12.93
2018-04-06T18:44:44.514Z,12.91
2018-04-06T18:47:12.811Z,12.88
2018-04-06T18:49:41.146Z,12.79
2018-04-06T18:52:09.531Z,12.73
2018-04-06T18:54:37.886Z,12.69
2018-04-06T18:57:06.227Z,12.67
2018-04-06T18:59:34.569Z,12.62
2018-04-06T19:02:02.926Z,12.59
2018-04-06T19:04:31.261Z,12.55
2018-04-06T19:06:59.611Z,12.50
2018-04-06T19:09:28.850Z,12.41
2018-04-06T19:11:57.203Z,12.35
2018-04-06T19:14:25.529Z,12.32
2018-04-06T19:16:53.890Z,12.29
2018-04-06T19:19:22.219Z,12.21
2018-04-06T19:21:50.578Z,12.14
2018-04-06T19:24:18.913Z,12.13
2018-04-06T19:26:47.263Z,12.09
2018-04-06T19:29:15.598Z,12.05
2018-04-06T19:31:43.955Z,12.05
2018-04-06T19:34:12.287Z,12.00
2018-04-06T19:36:40.638Z,11.99
2018-04-06T19:39:08.970Z,11.94
2018-04-06T19:41:37.326Z,11.85
2018-04-06T19:44:05.658Z,11.81
2018-04-06T19:46:34.014Z,11.76
2018-04-06T19:49:03.149Z,11.69
2018-04-06T19:51:31.493Z,11.67
2018-04-06T19:53:59.826Z,11.64
2018-04-06T19:56:28.179Z,11.61
2018-04-06T19:58:56.518Z,11.60
2018-04-06T20:01:24.888Z,11.54
2018-04-06T20:03:53.223Z,11.50
2018-04-06T20:06:21.581Z,11.46
2018-04-06T20:08:50.022Z,11.36
2018-04-06T20:11:18.374Z,11.33
2018-04-06T20:13:46.710Z,11.30
2018-04-06T20:16:15.058Z,11.21
2018-04-06T20:18:43.726Z,11.16
2018-04-06T20:21:12.071Z,11.17
2018-04-06T20:23:40.402Z,11.12
2018-04-06T20:26:08.760Z,11.09
2018-04-06T20:28:37.638Z,11.06
2018-04-06T20:31:05.987Z,11.07
2018-04-06T20:33:34.314Z,11.06
2018-04-06T20:36:02.683Z,11.03
2018-04-06T20:38:31.004Z,11.03
2018-04-06T20:40:59.330Z,10.95
2018-04-06T20:43:27.679Z,10.90
2018-04-06T20:45:55.998Z,10.86
2018-04-06T20:48:24.418Z,10.84
2018-04-06T20:50:52.746Z,10.76
2018-04-06T20:53:21.101Z,10.73
2018-04-06T20:55:49.443Z,10.64
2018-04-06T20:58:18.100Z,10.59
2018-04-06T21:00:46.421Z,10.56
2018-04-06T21:03:14.774Z,10.51
2018-04-06T21:05:43.110Z,10.46
2018-04-06T21:08:12.007Z,10.45
2018-04-06T21:10:40.338Z,10.44
2018-04-06T21:13:08.689Z,10.40
2018-04-06T21:15:37.022Z,10.34
2018-04-06T21:18:05.372Z,10.25
2018-04-06T21:20:33.699Z,10.28
2018-04-06T21:23:02.083Z,10.26
2018-04-06T21:25:30.379Z,10.22
2018-04-06T21:27:59.018Z,10.18
2018-04-06T21:30:27.372Z,10.06
2018-04-06T21:32:55.715Z,10.00
2018-04-06T21:35:24.051Z,9.89
2018-04-06T21:37:52.390Z,9.93
2018-04-06T21:40:20.720Z,10.00
2018-04-06T21:42:49.071Z,10.04
2018-04-06T21:45:17.411Z,10.01
2018-04-06T21:47:46.562Z,10.02
2018-04-06T21:50:14.887Z,10.08
2018-04-06T21:52:43.238Z,10.15
2018-04-06T21:55:11.572Z,10.19
2018-04-06T21:57:39.918Z,10.29
2018-04-06T22:00:08.241Z,10.32
2018-04-06T22:02:36.594Z,10.35
2018-04-06T22:05:04.914Z,10.38
2018-04-06T22:07:33.266Z,10.48
2018-04-06T22:10:01.594Z,10.50
2018-04-06T22:12:29.990Z,10.53
2018-04-06T22:14:58.322Z,10.61
2018-04-06T22:17:26.665Z,10.64
2018-04-06T22:19:54.993Z,10.76
2018-04-06T22:22:23.339Z,10.76
2018-04-06T22:24:51.662Z,10.77
2018-04-06T22:27:20.010Z,10.80
2018-04-06T22:29:48.338Z,10.88
2018-04-06T22:32:16.694Z,10.89
2018-04-06T22:34:45.009Z,10.91
2018-04-06T22:37:13.373Z,10.92
2018-04-06T22:39:41.702Z,10.87
2018-04-06T22:42:10.031Z,10.89
2018-04-06T22:44:38.369Z,10.87
2018-04-06T22:47:06.699Z,10.82
2018-04-06T22:49:35.047Z,10.79
2018-04-06T22:52:03.373Z,10.78
2018-04-06T22:54:31.714Z,10.74
2018-04-06T22:57:00.047Z,10.72
2018-04-06T22:59:28.393Z,10.73
2018-04-06T23:01:56.723Z,10.83
2018-04-06T23:04:25.071Z,10.77
2018-04-06T23:06:53.394Z,10.76
2018-04-06T23:09:21.747Z,10.76
2018-04-06T23:11:50.074Z,10.78
2018-04-06T23:14:18.426Z,10.75
2018-04-06T23:16:46.749Z,10.72
2018-04-06T23:19:15.094Z,10.69
2018-04-06T23:21:43.421Z,10.70
2018-04-06T23:24:11.758Z,10.66
2018-04-06T23:26:40.089Z,10.71
2018-04-06T23:29:08.434Z,10.69
2018-04-06T23:31:36.757Z,10.75
2018-04-06T23:34:05.106Z,10.74
2018-04-06T23:36:33.426Z,10.71
2018-04-06T23:39:01.815Z,10.74
2018-04-06T23:41:30.103Z,10.74
2018-04-06T23:43:58.451Z,10.73
2018-04-06T23:46:26.778Z,10.73
2018-04-06T23:48:55.126Z,10.71
2018-04-06T23:51:23.469Z,10.66
2018-04-06T23:53:51.802Z,10.44
2018-04-06T23:56:20.125Z,10.06
2018-04-06T23:58:48.462Z,9.68
